Time;durP1;ratioP1;P1;durP2;ratioP2;P2;SDS_P1;SDS_P2;PMS_P1;PMS_P2;Temp;Humidity;BMP_temperature;BMP_pressure;BME280_temperature;BME280_humidity;BME280_pressure;Samples;Min_cycle;Max_cycle;Signal;HPM_P1;HPM_P2
2023/02/06 00:01:14;;;;;;;20.03;4.03;;;5.40;99.90;;;;;;4930262;29;20502;-81
2023/02/06 00:03:41;;;;;;;23.27;4.20;;;5.40;99.90;;;;;;4928422;29;20230;-83
2023/02/06 00:06:08;;;;;;;27.00;5.13;;;5.40;99.90;;;;;;4928108;29;20293;-82
2023/02/06 00:08:35;;;;;;;29.70;4.97;;;5.40;99.90;;;;;;4928714;29;20293;-81
2023/02/06 00:11:04;;;;;;;15.03;3.93;;;5.40;99.90;;;;;;4930431;29;20220;-80
2023/02/06 00:13:31;;;;;;;13.90;3.70;;;5.40;99.90;;;;;;4933438;29;20216;-84
2023/02/06 00:15:58;;;;;;;15.43;4.73;;;5.40;99.90;;;;;;4949259;28;20285;-81
2023/02/06 00:18:26;;;;;;;14.87;4.53;;;5.40;99.90;;;;;;4935381;29;20320;-81
2023/02/06 00:20:53;;;;;;;21.13;3.40;;;5.40;99.90;;;;;;4929620;28;20591;-81
2023/02/06 00:23:20;;;;;;;16.73;3.43;;;5.30;99.90;;;;;;4930237;29;20230;-81
2023/02/06 00:25:47;;;;;;;25.67;4.50;;;5.40;99.90;;;;;;4929575;29;20205;-81
2023/02/06 00:28:14;;;;;;;18.83;4.03;;;5.30;99.90;;;;;;4928895;29;20277;-81
2023/02/06 00:30:41;;;;;;;23.10;4.80;;;5.40;99.90;;;;;;4928418;29;20206;-82
2023/02/06 00:33:08;;;;;;;18.30;4.13;;;5.40;99.90;;;;;;4929539;29;20284;-82
2023/02/06 00:35:37;;;;;;;22.13;3.93;;;5.40;99.90;;;;;;4928434;29;20237;-81
2023/02/06 00:38:05;;;;;;;16.30;3.87;;;5.40;99.90;;;;;;4929023;28;20238;-82
2023/02/06 00:40:32;;;;;;;12.87;3.23;;;5.40;99.90;;;;;;4928704;28;20206;-82
2023/02/06 00:42:59;;;;;;;16.10;3.00;;;5.40;99.90;;;;;;4928819;29;20521;-82
2023/02/06 00:45:26;;;;;;;11.07;3.03;;;5.30;99.90;;;;;;4929765;29;20859;-82
2023/02/06 00:47:53;;;;;;;13.40;3.40;;;5.30;99.90;;;;;;4929210;29;20199;-82
2023/02/06 00:50:20;;;;;;;11.63;3.23;;;5.30;99.90;;;;;;4928671;29;20250;-83
2023/02/06 00:52:48;;;;;;;13.90;3.67;;;5.30;99.90;;;;;;4929477;29;20324;-82
2023/02/06 00:55:16;;;;;;;13.97;2.77;;;5.30;99.90;;;;;;4928969;29;20398;-81
2023/02/06 00:57:43;;;;;;;13.93;2.57;;;5.30;99.90;;;;;;4928916;29;20594;-81
2023/02/06 01:00:11;;;;;;;15.40;3.83;;;5.30;99.90;;;;;;4929195;29;20224;-81
2023/02/06 01:02:38;;;;;;;31.33;5.17;;;5.30;99.90;;;;;;4927977;29;20226;-82
2023/02/06 01:05:06;;;;;;;13.07;3.37;;;5.30;99.90;;;;;;4927392;29;20198;-82
2023/02/06 01:07:33;;;;;;;10.30;2.87;;;5.30;99.90;;;;;;4926748;29;20225;-81
2023/02/06 01:10:01;;;;;;;17.17;3.57;;;5.30;99.90;;;;;;4926654;29;20694;-82
2023/02/06 01:12:28;;;;;;;13.33;3.60;;;5.30;99.90;;;;;;4926972;29;20274;-82
2023/02/06 01:14:55;;;;;;;11.07;3.50;;;5.20;99.90;;;;;;4928507;29;20209;-81
2023/02/06 01:17:22;;;;;;;16.87;4.17;;;5.20;99.90;;;;;;4928790;29;20740;-80
2023/02/06 01:19:49;;;;;;;16.33;4.00;;;5.20;99.90;;;;;;4928675;29;20209;-81
2023/02/06 01:22:16;;;;;;;13.37;3.10;;;5.20;99.90;;;;;;4928695;29;20598;-82
2023/02/06 01:24:43;;;;;;;10.30;2.83;;;5.10;99.90;;;;;;4928436;29;20202;-81
2023/02/06 01:27:11;;;;;;;8.83;2.30;;;5.10;99.90;;;;;;4928790;29;20226;-82
2023/02/06 01:29:38;;;;;;;8.40;2.57;;;5.10;99.90;;;;;;4928347;29;20214;-81
2023/02/06 01:32:05;;;;;;;9.47;3.00;;;5.10;99.90;;;;;;4928518;29;20198;-81
2023/02/06 01:34:32;;;;;;;18.87;3.30;;;5.10;99.90;;;;;;4932045;29;20304;-81
2023/02/06 01:36:59;;;;;;;12.17;2.97;;;5.10;99.90;;;;;;4947556;28;20296;-80
2023/02/06 01:39:25;;;;;;;9.83;2.93;;;5.10;99.90;;;;;;4946692;28;20217;-81
2023/02/06 01:41:52;;;;;;;12.37;3.37;;;5.00;99.90;;;;;;4934570;29;20484;-80
2023/02/06 01:44:22;;;;;;;7.37;2.27;;;5.10;99.90;;;;;;4927839;29;20222;-82
2023/02/06 01:46:51;;;;;;;10.23;2.50;;;5.10;99.90;;;;;;4927518;29;20220;-80
2023/02/06 01:49:24;;;;;;;7.50;2.10;;;5.10;99.90;;;;;;4928259;29;20209;-81
2023/02/06 01:51:52;;;;;;;6.83;2.07;;;5.00;99.90;;;;;;4927229;29;20700;-81
2023/02/06 01:54:20;;;;;;;13.20;2.77;;;5.00;99.90;;;;;;4928533;29;20206;-82
2023/02/06 01:56:53;;;;;;;12.13;2.47;;;5.00;99.90;;;;;;4927674;29;20202;-81
2023/02/06 01:59:21;;;;;;;12.50;3.33;;;5.00;99.90;;;;;;4928003;29;20309;-82
2023/02/06 02:01:48;;;;;;;13.57;3.17;;;4.90;99.90;;;;;;4928293;29;20204;-81
2023/02/06 02:04:18;;;;;;;7.00;2.20;;;4.90;99.90;;;;;;4928110;29;20232;-81
2023/02/06 02:06:53;;;;;;;5.73;1.80;;;4.90;99.90;;;;;;4926863;29;20317;-81
2023/02/06 02:09:20;;;;;;;8.07;1.93;;;4.90;99.90;;;;;;4927983;29;20201;-80
2023/02/06 02:11:47;;;;;;;4.97;1.93;;;4.90;99.90;;;;;;4927735;29;20794;-79
2023/02/06 02:14:16;;;;;;;12.87;2.80;;;4.90;99.90;;;;;;4927664;29;20206;-80
2023/02/06 02:16:54;;;;;;;7.97;2.20;;;4.90;99.90;;;;;;4927770;29;20859;-81
2023/02/06 02:20:05;;;;;;;8.33;2.50;;;4.80;99.90;;;;;;4928501;28;20534;-82
2023/02/06 02:22:54;;;;;;;6.13;1.87;;;4.80;99.90;;;;;;4925040;28;20626;-80
2023/02/06 02:25:56;;;;;;;17.03;3.80;;;4.80;99.90;;;;;;4934886;28;20213;-81
2023/02/06 02:29:06;;;;;;;19.73;4.40;;;4.80;99.90;;;;;;4946904;29;20319;-82
2023/02/06 02:32:15;;;;;;;10.73;3.37;;;4.80;99.90;;;;;;4887261;29;20207;-82
2023/02/06 02:35:18;;;;;;;10.70;2.43;;;4.70;99.90;;;;;;4927704;29;20651;-80
2023/02/06 02:37:59;;;;;;;8.77;2.37;;;4.70;99.90;;;;;;4928412;29;20853;-80
2023/02/06 02:40:37;;;;;;;12.10;2.77;;;4.70;99.90;;;;;;4928006;29;20828;-83
2023/02/06 02:43:14;;;;;;;10.40;3.30;;;4.70;99.90;;;;;;4927861;29;20216;-82
2023/02/06 02:45:46;;;;;;;15.83;3.70;;;4.70;99.90;;;;;;4927774;29;20292;-82
2023/02/06 02:48:18;;;;;;;10.50;2.40;;;4.70;99.90;;;;;;4927930;29;20273;-81
2023/02/06 02:50:46;;;;;;;18.30;3.97;;;4.60;99.90;;;;;;4930912;29;20205;-82
2023/02/06 02:53:16;;;;;;;19.03;3.67;;;4.60;99.90;;;;;;4947602;28;20201;-81
2023/02/06 02:55:43;;;;;;;15.13;2.70;;;4.60;99.90;;;;;;4948472;29;20299;-81
2023/02/06 02:58:15;;;;;;;13.20;2.80;;;4.60;99.90;;;;;;4931529;29;20210;-81
2023/02/06 03:00:47;;;;;;;10.53;2.90;;;4.60;99.90;;;;;;4930979;29;20202;-81
2023/02/06 03:03:19;;;;;;;12.00;3.73;;;4.60;99.90;;;;;;4930730;29;20320;-82
2023/02/06 03:05:56;;;;;;;12.50;2.60;;;4.60;99.90;;;;;;4930812;29;20253;-81
2023/02/06 03:08:28;;;;;;;7.87;2.43;;;4.60;99.90;;;;;;4930985;29;20214;-80
2023/02/06 03:11:06;;;;;;;8.73;2.17;;;4.60;99.90;;;;;;4930509;29;20224;-82
2023/02/06 03:13:38;;;;;;;12.67;2.93;;;4.60;99.90;;;;;;4930751;29;20587;-81
2023/02/06 03:16:11;;;;;;;9.93;2.87;;;4.60;99.90;;;;;;4934434;29;20213;-82
2023/02/06 03:18:44;;;;;;;5.17;1.80;;;4.60;99.90;;;;;;4949611;29;20213;-81
2023/02/06 03:21:16;;;;;;;7.00;2.17;;;4.60;99.90;;;;;;4950233;29;20212;-82
2023/02/06 03:23:45;;;;;;;8.40;2.30;;;4.60;99.90;;;;;;4930288;29;20333;-81
2023/02/06 03:26:15;;;;;;;11.10;3.07;;;4.60;99.90;;;;;;4930131;29;20220;-82
2023/02/06 03:28:45;;;;;;;7.57;2.20;;;4.60;99.90;;;;;;4930053;29;20730;-80
2023/02/06 03:31:17;;;;;;;6.47;2.07;;;4.60;99.90;;;;;;4930402;29;20543;-81
2023/02/06 03:33:49;;;;;;;8.47;2.10;;;4.60;99.90;;;;;;4949180;29;20217;-81
2023/02/06 03:36:19;;;;;;;6.00;1.90;;;4.60;99.90;;;;;;4940310;28;20600;-81
2023/02/06 03:38:48;;;;;;;8.33;1.90;;;4.50;99.90;;;;;;4930138;29;20321;-79
2023/02/06 03:41:18;;;;;;;8.50;2.33;;;4.50;99.90;;;;;;4930391;29;20195;-82
2023/02/06 03:43:48;;;;;;;7.17;2.00;;;4.50;99.90;;;;;;4929502;29;20400;-82
2023/02/06 03:46:17;;;;;;;10.43;2.37;;;4.50;99.90;;;;;;4930521;29;20642;-82
2023/02/06 03:48:48;;;;;;;6.50;2.00;;;4.40;99.90;;;;;;4930398;29;20233;-81
2023/02/06 03:51:21;;;;;;;4.57;2.00;;;4.40;99.90;;;;;;4930031;29;20248;-82
2023/02/06 03:53:50;;;;;;;6.37;2.10;;;4.40;99.90;;;;;;4930570;29;20208;-81
2023/02/06 03:56:23;;;;;;;10.13;2.50;;;4.40;99.90;;;;;;4930765;29;20206;-82
2023/02/06 03:58:50;;;;;;;8.87;2.43;;;4.40;99.90;;;;;;4929728;29;20289;-81
2023/02/06 04:01:18;;;;;;;5.50;1.83;;;4.40;99.90;;;;;;4930220;29;20312;-81
2023/02/06 04:03:46;;;;;;;10.63;2.40;;;4.40;99.90;;;;;;4930675;29;20230;-81
2023/02/06 04:06:13;;;;;;;23.10;4.90;;;4.40;99.90;;;;;;4928516;29;20198;-80
2023/02/06 04:08:41;;;;;;;13.37;3.47;;;4.40;99.90;;;;;;4929857;29;20198;-82
2023/02/06 04:11:08;;;;;;;9.83;2.40;;;4.40;99.90;;;;;;4930370;29;20214;-80
2023/02/06 04:13:35;;;;;;;9.53;2.20;;;4.40;99.90;;;;;;4931010;29;20560;-81
2023/02/06 04:16:02;;;;;;;12.43;2.03;;;4.40;99.90;;;;;;4949063;28;20699;-81
2023/02/06 04:18:29;;;;;;;9.43;2.40;;;4.40;99.90;;;;;;4948786;28;20661;-82
2023/02/06 04:20:56;;;;;;;8.27;3.23;;;4.40;99.90;;;;;;4948211;29;20216;-82
2023/02/06 04:23:23;;;;;;;12.07;2.40;;;4.40;99.90;;;;;;4948088;29;20929;-81
2023/02/06 04:25:51;;;;;;;6.00;1.90;;;4.40;99.90;;;;;;4948287;28;20853;-82
2023/02/06 04:28:18;;;;;;;6.37;2.20;;;4.30;99.90;;;;;;4948463;29;20219;-81
2023/02/06 04:30:45;;;;;;;6.97;2.00;;;4.30;99.90;;;;;;4945826;29;20212;-82
2023/02/06 04:33:12;;;;;;;6.53;2.13;;;4.30;99.90;;;;;;4928779;28;20293;-81
2023/02/06 04:35:39;;;;;;;8.17;2.10;;;4.30;99.90;;;;;;4928591;29;20945;-81
2023/02/06 04:38:05;;;;;;;7.67;2.47;;;4.30;99.90;;;;;;4929300;29;20890;-82
2023/02/06 04:40:32;;;;;;;9.00;2.13;;;4.30;99.90;;;;;;4928167;29;20205;-81
2023/02/06 04:43:01;;;;;;;13.57;2.50;;;4.30;99.90;;;;;;4928456;29;20258;-82
2023/02/06 04:45:28;;;;;;;14.50;2.93;;;4.30;99.90;;;;;;4928151;29;20253;-82
2023/02/06 04:47:54;;;;;;;19.10;3.30;;;4.30;99.90;;;;;;4927832;29;20877;-83
2023/02/06 04:50:21;;;;;;;9.80;2.50;;;4.30;99.90;;;;;;4928336;29;20290;-82
2023/02/06 04:52:48;;;;;;;9.13;2.10;;;4.30;99.90;;;;;;4928657;29;20209;-81
2023/02/06 04:55:15;;;;;;;8.77;2.20;;;4.30;99.90;;;;;;4929744;29;20212;-81
2023/02/06 04:57:42;;;;;;;7.10;1.97;;;4.30;99.90;;;;;;4928450;29;20257;-81
2023/02/06 05:00:13;;;;;;;9.30;2.40;;;4.30;99.90;;;;;;4929261;29;20305;-80
2023/02/06 05:02:40;;;;;;;9.17;2.20;;;4.30;99.90;;;;;;4927279;29;20208;-81
2023/02/06 05:05:08;;;;;;;13.67;2.70;;;4.30;99.90;;;;;;4931314;29;20225;-81
2023/02/06 05:07:36;;;;;;;16.10;3.20;;;4.20;99.90;;;;;;4945377;29;20980;-81
2023/02/06 05:10:04;;;;;;;9.60;2.50;;;4.30;99.90;;;;;;4945188;29;20296;-81
2023/02/06 05:12:30;;;;;;;8.87;2.50;;;4.30;99.90;;;;;;4944819;29;20236;-82
2023/02/06 05:14:57;;;;;;;8.73;2.80;;;4.30;99.90;;;;;;4945637;29;20207;-81
2023/02/06 05:17:26;;;;;;;9.57;2.33;;;4.30;99.90;;;;;;4945922;28;20205;-80
2023/02/06 05:19:53;;;;;;;11.60;2.30;;;4.30;99.90;;;;;;4943553;29;20241;-80
2023/02/06 05:22:20;;;;;;;13.37;2.63;;;4.30;99.90;;;;;;4927889;29;20214;-81
2023/02/06 05:24:47;;;;;;;28.03;4.13;;;4.30;99.90;;;;;;4928103;29;20313;-80
2023/02/06 05:27:14;;;;;;;18.80;4.03;;;4.40;99.90;;;;;;4927802;29;20206;-80
2023/02/06 05:29:41;;;;;;;10.73;2.70;;;4.40;99.90;;;;;;4927513;29;20210;-80
2023/02/06 05:32:08;;;;;;;8.17;2.90;;;4.40;99.90;;;;;;4927418;29;20855;-81
2023/02/06 05:34:36;;;;;;;13.23;2.77;;;4.40;99.90;;;;;;4940284;28;20288;-81
2023/02/06 05:37:03;;;;;;;11.17;3.10;;;4.40;99.90;;;;;;4944401;29;20206;-81
2023/02/06 05:39:30;;;;;;;7.60;2.30;;;4.40;99.90;;;;;;4943733;29;20284;-80
2023/02/06 05:41:57;;;;;;;10.90;4.27;;;4.40;99.90;;;;;;4927915;29;20202;-80
2023/02/06 05:44:24;;;;;;;12.43;2.53;;;4.40;99.90;;;;;;4927325;29;20235;-80
2023/02/06 05:46:51;;;;;;;9.73;3.03;;;4.30;99.90;;;;;;4927693;29;20220;-80
2023/02/06 05:49:18;;;;;;;8.97;2.27;;;4.30;99.90;;;;;;4928043;29;20214;-81
2023/02/06 05:51:46;;;;;;;8.53;2.43;;;4.30;99.90;;;;;;4927060;29;20321;-80
2023/02/06 05:54:15;;;;;;;9.97;3.10;;;4.30;99.90;;;;;;4927807;29;20227;-80
2023/02/06 05:56:42;;;;;;;9.20;2.70;;;4.30;99.90;;;;;;4927588;29;20233;-80
2023/02/06 05:59:09;;;;;;;6.50;1.90;;;4.30;99.90;;;;;;4930255;29;20220;-81
2023/02/06 06:01:36;;;;;;;5.73;2.13;;;4.30;99.90;;;;;;4945534;29;20224;-82
2023/02/06 06:04:03;;;;;;;6.43;2.37;;;4.30;99.90;;;;;;4946007;29;20665;-81
2023/02/06 06:06:30;;;;;;;7.97;2.50;;;4.30;99.90;;;;;;4945463;29;20293;-82
2023/02/06 06:09:00;;;;;;;6.87;2.70;;;4.30;99.90;;;;;;4932028;29;20217;-82
2023/02/06 06:11:27;;;;;;;10.77;2.40;;;4.30;99.90;;;;;;4926939;28;20225;-81
2023/02/06 06:13:53;;;;;;;10.47;2.87;;;4.30;99.90;;;;;;4933422;29;20209;-81
2023/02/06 06:16:20;;;;;;;10.27;3.10;;;4.30;99.90;;;;;;4933599;29;20260;-81
2023/02/06 06:18:47;;;;;;;8.50;2.63;;;4.30;99.90;;;;;;4926065;29;20584;-81
2023/02/06 06:21:14;;;;;;;7.97;3.33;;;4.30;99.90;;;;;;4926630;29;20251;-83
2023/02/06 06:23:41;;;;;;;13.43;3.67;;;4.30;99.90;;;;;;4926606;29;20528;-81
2023/02/06 06:26:10;;;;;;;10.07;3.03;;;4.30;99.90;;;;;;4926543;29;20230;-83
2023/02/06 06:28:37;;;;;;;15.63;4.20;;;4.30;99.90;;;;;;4926638;29;20213;-80
2023/02/06 06:31:06;;;;;;;9.20;3.03;;;4.30;99.90;;;;;;4930924;29;20217;-81
2023/02/06 06:33:34;;;;;;;12.20;3.57;;;4.30;99.90;;;;;;4929284;29;20206;-81
2023/02/06 06:36:00;;;;;;;11.53;3.43;;;4.20;99.90;;;;;;4930495;29;20241;-81
2023/02/06 06:38:27;;;;;;;12.27;3.53;;;4.20;99.90;;;;;;4930064;29;20313;-82
2023/02/06 06:40:54;;;;;;;6.23;2.53;;;4.20;99.90;;;;;;4930292;29;20293;-82
2023/02/06 06:43:23;;;;;;;14.40;3.80;;;4.20;99.90;;;;;;4931651;29;20521;-81
2023/02/06 06:45:50;;;;;;;11.37;3.07;;;4.20;99.90;;;;;;4948581;28;20595;-82
2023/02/06 06:48:17;;;;;;;12.17;3.33;;;4.20;99.90;;;;;;4948769;29;20284;-82
2023/02/06 06:50:44;;;;;;;14.67;4.17;;;4.20;99.90;;;;;;4942708;29;20209;-82
2023/02/06 06:53:11;;;;;;;16.77;3.77;;;4.20;99.90;;;;;;4929972;29;20206;-81
2023/02/06 06:55:38;;;;;;;13.00;3.53;;;4.20;99.90;;;;;;4929112;29;20306;-81
2023/02/06 06:58:05;;;;;;;11.77;3.57;;;4.20;99.90;;;;;;4930099;29;20201;-81
2023/02/06 07:00:33;;;;;;;10.13;3.47;;;4.20;99.90;;;;;;4929265;29;20414;-81
2023/02/06 07:03:00;;;;;;;9.83;3.10;;;4.20;99.90;;;;;;4929681;29;20205;-82
2023/02/06 07:05:27;;;;;;;14.93;4.33;;;4.20;99.90;;;;;;4930092;29;20245;-82
2023/02/06 07:07:54;;;;;;;7.90;3.20;;;4.20;99.90;;;;;;4929607;29;20911;-81
2023/02/06 07:10:21;;;;;;;7.83;3.17;;;4.20;99.90;;;;;;4929948;29;20494;-81
2023/02/06 07:12:48;;;;;;;10.40;2.83;;;4.20;99.90;;;;;;4930238;29;20197;-81
2023/02/06 07:15:15;;;;;;;10.60;3.27;;;4.20;99.90;;;;;;4929178;29;20208;-82
2023/02/06 07:17:43;;;;;;;13.00;3.60;;;4.10;99.90;;;;;;4929606;29;20266;-81
2023/02/06 07:20:11;;;;;;;17.37;3.70;;;4.20;99.90;;;;;;4930018;29;20209;-82
2023/02/06 07:22:38;;;;;;;9.57;3.80;;;4.10;99.90;;;;;;4928707;29;20210;-81
2023/02/06 07:25:06;;;;;;;9.97;3.17;;;4.10;99.90;;;;;;4929308;29;20736;-81
2023/02/06 07:27:33;;;;;;;15.80;4.03;;;4.10;99.90;;;;;;4928781;29;21004;-81
2023/02/06 07:30:00;;;;;;;12.47;3.73;;;4.10;99.90;;;;;;4929116;29;20892;-82
2023/02/06 07:32:27;;;;;;;24.87;5.63;;;4.10;99.90;;;;;;4929717;29;20206;-81
2023/02/06 07:34:55;;;;;;;11.03;3.20;;;4.10;99.90;;;;;;4929536;29;20245;-82
2023/02/06 07:37:22;;;;;;;10.43;3.60;;;4.10;99.90;;;;;;4928627;29;20293;-81
2023/02/06 07:39:49;;;;;;;11.90;4.63;;;4.10;99.90;;;;;;4929974;29;20202;-82
2023/02/06 07:42:15;;;;;;;12.77;4.47;;;4.10;99.90;;;;;;4938723;29;20215;-81
2023/02/06 07:44:42;;;;;;;14.63;4.53;;;4.10;99.90;;;;;;4947834;28;20240;-81
2023/02/06 07:47:10;;;;;;;15.20;4.33;;;4.10;99.90;;;;;;4949837;29;20225;-81
2023/02/06 07:49:37;;;;;;;13.07;4.80;;;4.10;99.90;;;;;;4943514;29;20222;-81
2023/02/06 07:52:05;;;;;;;16.53;4.60;;;4.20;99.90;;;;;;4929331;29;20202;-81
2023/02/06 07:54:33;;;;;;;14.40;4.17;;;4.20;99.90;;;;;;4929303;29;20225;-79
2023/02/06 07:57:00;;;;;;;13.63;4.67;;;4.20;99.90;;;;;;4929777;29;20216;-80
2023/02/06 07:59:27;;;;;;;10.57;4.03;;;4.20;99.90;;;;;;4930211;29;20209;-80
2023/02/06 08:01:54;;;;;;;21.50;6.17;;;4.30;99.90;;;;;;4930611;29;20546;-80
2023/02/06 08:04:21;;;;;;;29.10;7.53;;;4.30;99.90;;;;;;4933488;29;20202;-90
2023/02/06 08:06:48;;;;;;;20.73;6.67;;;4.30;99.90;;;;;;4949710;29;20514;-87
2023/02/06 08:09:17;;;;;;;24.67;8.50;;;4.30;99.90;;;;;;4952611;29;20216;-85
2023/02/06 08:11:44;;;;;;;16.87;7.13;;;4.20;99.90;;;;;;4929478;29;20223;-86
2023/02/06 08:14:11;;;;;;;20.90;8.33;;;4.30;99.90;;;;;;4950093;29;20611;-85
2023/02/06 08:16:39;;;;;;;18.63;7.93;;;4.20;99.90;;;;;;4950384;28;20244;-87
2023/02/06 08:19:09;;;;;;;22.40;8.57;;;4.20;99.90;;;;;;4948573;28;20217;-84
2023/02/06 08:21:36;;;;;;;21.60;9.90;;;4.20;99.90;;;;;;4951099;29;20213;-86
2023/02/06 08:24:04;;;;;;;33.63;13.17;;;4.20;99.90;;;;;;4948121;29;20300;-84
2023/02/06 08:26:33;;;;;;;37.47;14.17;;;4.20;99.90;;;;;;4944864;28;20488;-85
2023/02/06 08:29:03;;;;;;;32.53;14.87;;;4.20;99.90;;;;;;4947898;29;20316;-82
2023/02/06 08:31:32;;;;;;;34.03;13.73;;;4.20;99.90;;;;;;4943396;28;20294;-81
2023/02/06 08:33:59;;;;;;;27.40;11.80;;;4.10;99.90;;;;;;4949284;28;20243;-81
2023/02/06 08:36:28;;;;;;;24.23;11.60;;;4.10;99.90;;;;;;4952691;28;20232;-81
2023/02/06 08:38:55;;;;;;;25.97;11.70;;;4.10;99.90;;;;;;4959670;28;20328;-81
2023/02/06 08:41:24;;;;;;;25.33;12.37;;;4.10;99.90;;;;;;4948304;28;20216;-82
2023/02/06 08:43:54;;;;;;;25.80;11.63;;;4.10;99.90;;;;;;4948021;28;20287;-81
2023/02/06 08:46:23;;;;;;;23.33;11.00;;;4.10;99.90;;;;;;4938984;29;20234;-81
2023/02/06 08:48:55;;;;;;;22.87;11.63;;;4.10;99.90;;;;;;4939539;29;20922;-80
2023/02/06 08:51:26;;;;;;;27.10;12.60;;;4.10;99.90;;;;;;4946644;28;20194;-79
2023/02/06 08:53:55;;;;;;;41.93;14.87;;;4.10;99.90;;;;;;4947560;29;20235;-81
2023/02/06 08:56:22;;;;;;;31.57;12.73;;;4.10;99.90;;;;;;4945345;28;20296;-81
2023/02/06 08:58:49;;;;;;;34.50;13.13;;;4.10;99.90;;;;;;4947830;29;20201;-81
2023/02/06 09:01:17;;;;;;;27.97;11.17;;;4.20;99.90;;;;;;4946681;28;20491;-83
2023/02/06 09:03:45;;;;;;;34.83;12.93;;;4.20;99.90;;;;;;4945192;29;20202;-81
2023/02/06 09:06:13;;;;;;;38.27;11.33;;;4.20;99.90;;;;;;4947703;29;20225;-81
2023/02/06 09:08:41;;;;;;;27.13;9.70;;;4.30;99.90;;;;;;4947265;28;20531;-82
2023/02/06 09:11:10;;;;;;;27.60;8.10;;;4.40;99.90;;;;;;4948125;29;20260;-81
2023/02/06 09:13:38;;;;;;;19.70;5.90;;;4.50;99.90;;;;;;4933373;28;20237;-82
2023/02/06 09:16:06;;;;;;;23.27;6.83;;;4.60;99.90;;;;;;4938604;29;20304;-83
2023/02/06 09:18:34;;;;;;;37.93;6.40;;;4.70;99.90;;;;;;4948447;28;21248;-84
2023/02/06 09:21:08;;;;;;;21.27;5.03;;;4.80;99.90;;;;;;4942994;28;20239;-84
2023/02/06 09:23:36;;;;;;;24.83;4.50;;;5.00;99.90;;;;;;4940347;28;20612;-82
2023/02/06 09:26:03;;;;;;;20.57;4.47;;;5.20;99.90;;;;;;4948754;28;20221;-82
2023/02/06 09:28:29;;;;;;;20.37;4.83;;;5.30;99.90;;;;;;4953151;28;20624;-83
2023/02/06 09:30:57;;;;;;;21.70;3.87;;;5.50;99.90;;;;;;4951621;28;20209;-84
2023/02/06 09:33:24;;;;;;;29.07;7.97;;;5.60;99.90;;;;;;4952787;28;20244;-84
2023/02/06 09:36:01;;;;;;;26.17;9.67;;;5.70;99.90;;;;;;4946207;28;20236;-83
2023/02/06 09:38:29;;;;;;;26.53;9.53;;;5.80;99.90;;;;;;4945457;28;20319;-81
2023/02/06 09:40:56;;;;;;;33.03;9.90;;;5.90;99.90;;;;;;4948113;29;20345;-82
2023/02/06 09:43:24;;;;;;;26.13;6.77;;;5.90;99.90;;;;;;4947407;29;20228;-82
2023/02/06 09:45:57;;;;;;;25.17;8.60;;;6.00;99.90;;;;;;4945414;29;20229;-80
2023/02/06 09:48:27;;;;;;;27.20;7.13;;;6.10;99.90;;;;;;4947962;29;20229;-81
2023/02/06 09:51:06;;;;;;;29.60;7.63;;;6.20;99.90;;;;;;4937554;29;20209;-82
2023/02/06 09:53:43;;;;;;;22.03;4.37;;;6.30;99.90;;;;;;4943976;28;20223;-81
2023/02/06 09:56:19;;;;;;;28.00;5.73;;;6.50;99.90;;;;;;4947090;29;20284;-83
2023/02/06 09:58:54;;;;;;;26.40;6.97;;;6.50;99.90;;;;;;4926766;29;20233;-83
2023/02/06 10:01:27;;;;;;;31.00;6.00;;;6.60;99.90;;;;;;4931668;29;20613;-83
2023/02/06 10:04:11;;;;;;;28.60;6.60;;;6.60;99.90;;;;;;4933938;29;20305;-82
2023/02/06 10:06:48;;;;;;;27.77;6.10;;;6.70;99.90;;;;;;4935599;29;20217;-83
2023/02/06 10:09:18;;;;;;;23.40;6.10;;;6.80;99.90;;;;;;4934891;29;20286;-83
2023/02/06 10:11:49;;;;;;;31.43;7.17;;;6.80;99.90;;;;;;4934622;29;20599;-84
2023/02/06 10:14:22;;;;;;;22.40;5.20;;;6.90;99.90;;;;;;4934963;29;20567;-83
2023/02/06 10:16:53;;;;;;;25.53;4.73;;;7.00;99.90;;;;;;4934990;29;20206;-84
2023/02/06 10:19:37;;;;;;;25.77;4.00;;;7.00;99.90;;;;;;4946972;29;20210;-83
2023/02/06 10:22:11;;;;;;;33.27;4.27;;;7.00;99.90;;;;;;4953925;29;20316;-84
2023/02/06 10:24:43;;;;;;;20.93;4.10;;;7.10;99.90;;;;;;4953634;28;20219;-83
2023/02/06 10:27:13;;;;;;;19.33;3.43;;;7.10;99.90;;;;;;4954241;29;20228;-83
2023/02/06 10:29:41;;;;;;;23.57;4.57;;;7.20;99.90;;;;;;4938120;29;20220;-82
2023/02/06 10:32:18;;;;;;;14.63;3.43;;;7.20;99.90;;;;;;4933537;29;20232;-81
2023/02/06 10:35:06;;;;;;;24.57;4.63;;;7.30;99.90;;;;;;4933606;29;20304;-83
2023/02/06 10:37:53;;;;;;;31.17;4.47;;;7.40;99.90;;;;;;4939227;28;20233;-82
2023/02/06 10:40:36;;;;;;;27.60;4.67;;;7.60;99.90;;;;;;4949399;29;20233;-82
2023/02/06 10:43:13;;;;;;;18.93;3.53;;;7.70;99.90;;;;;;4951849;29;20190;-82
2023/02/06 10:45:45;;;;;;;24.60;4.60;;;7.80;99.90;;;;;;4950816;29;20232;-82
2023/02/06 10:48:21;;;;;;;27.20;4.37;;;7.90;99.90;;;;;;4950456;29;20204;-82
2023/02/06 10:50:53;;;;;;;20.40;4.07;;;8.00;99.90;;;;;;4949242;29;20208;-82
2023/02/06 10:53:27;;;;;;;24.67;4.57;;;8.00;99.90;;;;;;4950830;28;20202;-82
2023/02/06 10:55:59;;;;;;;20.73;3.70;;;8.10;99.90;;;;;;4950218;29;20772;-81
2023/02/06 10:58:31;;;;;;;20.23;4.63;;;8.10;99.90;;;;;;4949125;29;20292;-81
2023/02/06 11:01:00;;;;;;;23.87;4.30;;;8.30;99.90;;;;;;4949504;29;20225;-81
2023/02/06 11:03:30;;;;;;;23.60;4.23;;;8.40;99.90;;;;;;4941794;28;20300;-81
2023/02/06 11:05:58;;;;;;;23.40;5.00;;;8.30;99.90;;;;;;4930775;29;20237;-81
2023/02/06 11:08:30;;;;;;;18.23;3.50;;;8.30;99.90;;;;;;4930187;29;20241;-80
2023/02/06 11:10:57;;;;;;;13.40;3.10;;;8.30;99.90;;;;;;4930726;29;20288;-81
2023/02/06 11:13:28;;;;;;;15.40;3.17;;;8.30;99.90;;;;;;4930627;29;20217;-81
2023/02/06 11:16:01;;;;;;;17.67;3.23;;;8.40;99.90;;;;;;4929617;29;20210;-81
2023/02/06 11:18:31;;;;;;;21.17;3.43;;;8.60;99.90;;;;;;4929675;28;20210;-81
2023/02/06 11:20:59;;;;;;;17.00;4.03;;;8.70;99.90;;;;;;4930273;29;20202;-81
2023/02/06 11:23:29;;;;;;;14.23;3.30;;;8.90;99.90;;;;;;4929651;29;20229;-80
2023/02/06 11:26:07;;;;;;;16.10;3.40;;;9.00;99.90;;;;;;4930291;29;20253;-81
2023/02/06 11:28:38;;;;;;;18.20;4.17;;;9.20;99.90;;;;;;4929348;29;20213;-81
2023/02/06 11:31:07;;;;;;;13.93;2.83;;;9.20;99.90;;;;;;4932922;29;20559;-82
2023/02/06 11:33:39;;;;;;;15.87;3.17;;;9.20;99.90;;;;;;4930611;29;20214;-82
2023/02/06 11:36:21;;;;;;;14.00;3.00;;;9.20;99.90;;;;;;4928049;29;20246;-83
2023/02/06 11:38:58;;;;;;;16.70;3.70;;;9.10;99.90;;;;;;4927422;29;20233;-83
2023/02/06 11:41:25;;;;;;;16.10;3.20;;;9.10;99.90;;;;;;4930832;28;20572;-82
2023/02/06 11:44:00;;;;;;;14.33;2.90;;;9.10;99.90;;;;;;4930915;29;20710;-82
2023/02/06 11:46:29;;;;;;;16.83;2.90;;;9.10;99.90;;;;;;4930893;28;20340;-82
2023/02/06 11:49:05;;;;;;;15.00;2.73;;;9.00;99.90;;;;;;4928928;29;20309;-83
2023/02/06 11:51:47;;;;;;;12.33;3.13;;;9.00;99.90;;;;;;4927520;29;20526;-82
2023/02/06 11:54:22;;;;;;;15.73;3.13;;;9.20;99.90;;;;;;4927853;29;20224;-82
2023/02/06 11:57:06;;;;;;;20.30;3.50;;;9.50;99.90;;;;;;4927796;29;20193;-78
2023/02/06 11:59:35;;;;;;;15.30;3.43;;;9.70;99.90;;;;;;4929415;29;20324;-81
2023/02/06 12:02:12;;;;;;;16.00;3.17;;;9.90;99.90;;;;;;4942009;29;20213;-82
2023/02/06 12:04:41;;;;;;;19.00;3.13;;;9.80;99.90;;;;;;4942297;29;20296;-82
2023/02/06 12:07:15;;;;;;;14.07;2.60;;;9.70;99.90;;;;;;4947778;29;20225;-81
2023/02/06 12:09:43;;;;;;;14.53;3.40;;;9.60;99.90;;;;;;4948407;29;20235;-83
2023/02/06 12:12:22;;;;;;;19.90;3.87;;;9.50;99.90;;;;;;4942789;29;20217;-82
2023/02/06 12:14:54;;;;;;;15.33;2.80;;;9.40;99.90;;;;;;4948100;29;20209;-82
2023/02/06 12:17:26;;;;;;;16.63;3.03;;;9.40;99.90;;;;;;4948557;29;20205;-83
2023/02/06 12:20:01;;;;;;;14.73;3.57;;;9.30;99.90;;;;;;4945850;29;20261;-84
2023/02/06 12:22:31;;;;;;;16.70;2.97;;;9.20;99.90;;;;;;4932194;29;20293;-84
2023/02/06 12:25:03;;;;;;;15.13;2.70;;;9.10;99.90;;;;;;4930742;29;20208;-83
2023/02/06 12:27:34;;;;;;;10.23;2.40;;;9.00;99.90;;;;;;4928561;29;20304;-83
2023/02/06 12:30:07;;;;;;;14.43;3.03;;;8.90;99.90;;;;;;4928358;29;20206;-84
2023/02/06 12:32:38;;;;;;;15.83;3.10;;;8.80;99.90;;;;;;4928098;29;20209;-86
2023/02/06 12:35:20;;;;;;;12.67;2.67;;;8.80;99.90;;;;;;4929187;29;20229;-81
2023/02/06 12:37:51;;;;;;;17.83;2.70;;;8.90;99.90;;;;;;4929084;29;20233;-81
2023/02/06 12:40:32;;;;;;;14.00;3.20;;;9.00;99.90;;;;;;4929768;29;20296;-82
2023/02/06 12:43:03;;;;;;;15.30;3.13;;;9.20;99.90;;;;;;4929904;29;20285;-82
2023/02/06 12:45:41;;;;;;;7.83;2.27;;;9.50;99.90;;;;;;4929057;29;20827;-82
2023/02/06 12:48:16;;;;;;;17.80;3.83;;;9.70;99.90;;;;;;4930685;29;20235;-83
2023/02/06 12:50:48;;;;;;;14.47;3.23;;;9.90;99.90;;;;;;4936380;29;20223;-81
2023/02/06 12:53:19;;;;;;;16.67;2.67;;;10.00;99.90;;;;;;4948697;28;20215;-82
2023/02/06 12:55:52;;;;;;;20.23;3.43;;;10.00;99.90;;;;;;4950479;29;20193;-83
2023/02/06 12:58:26;;;;;;;15.77;2.80;;;10.00;99.90;;;;;;4950820;29;20304;-82
2023/02/06 13:01:19;;;;;;;12.87;2.90;;;9.80;99.90;;;;;;4939791;29;20315;-83
2023/02/06 13:03:50;;;;;;;14.70;2.63;;;9.70;99.90;;;;;;4929733;29;20206;-82